RYR9135 LIPE-LEXJ
Flight info
| Callsign | RYR9135 |
|---|---|
| Flight time | 2h 5m |
| Altitude | 36000 |
| Route | LUPOS M859 GOLAS DCT GEN DCT GEKBA DCT VAMTU DCT KOLON DCT GANGU DCT PADKO DCT DIVKO DCT NILDU N975 BGR T410 VIBOK M601 PPN M601 BLV |
| Aircraft | B738/M-SDE2E3FGHIRWXY/LB1 |
Departure
| Time | 2026-05-05 15:46 |
|---|---|
| Airport | Bologna Guglielmo Marconi Airport (LIPE) |
Arrival
| Time | 2026-05-05 17:51 |
|---|---|
| Airport | Seve Ballesteros-Santander Airport (LEXJ) |
| Time | Latitude | Longitude | Altitude | Speed | Heading |
|---|---|---|---|---|---|
| 2026-05-05 15:28 | 44.53272 | 11.28756 | 124 ft | 0 kts | 208° |
| 2026-05-05 15:39 | 44.53284 | 11.28765 | 125 ft | 4 kts | 213° |
| 2026-05-05 15:39 | 44.53304 | 11.28789 | 124 ft | 4 kts | 236° |
| 2026-05-05 15:39 | 44.53312 | 11.28820 | 125 ft | 4 kts | 286° |
| 2026-05-05 15:40 | 44.53310 | 11.28828 | 125 ft | 1 kts | 297° |
| 2026-05-05 15:41 | 44.53316 | 11.28816 | 125 ft | 3 kts | 309° |
| 2026-05-05 15:41 | 44.53346 | 11.28811 | 127 ft | 6 kts | 20° |
| 2026-05-05 15:42 | 44.53379 | 11.28778 | 127 ft | 8 kts | 296° |
| 2026-05-05 15:42 | 44.53407 | 11.28700 | 129 ft | 10 kts | 297° |
| 2026-05-05 15:42 | 44.53441 | 11.28599 | 128 ft | 13 kts | 294° |
| 2026-05-05 15:42 | 44.53485 | 11.28482 | 125 ft | 15 kts | 295° |
| 2026-05-05 15:43 | 44.53535 | 11.28345 | 128 ft | 17 kts | 297° |
| 2026-05-05 15:43 | 44.53590 | 11.28191 | 128 ft | 19 kts | 297° |
| 2026-05-05 15:43 | 44.53652 | 11.28022 | 125 ft | 20 kts | 297° |
| 2026-05-05 15:43 | 44.53718 | 11.27837 | 125 ft | 22 kts | 296° |
| 2026-05-05 15:44 | 44.53788 | 11.27639 | 128 ft | 23 kts | 295° |
| 2026-05-05 15:44 | 44.53859 | 11.27442 | 127 ft | 22 kts | 297° |
| 2026-05-05 15:44 | 44.53959 | 11.27284 | 126 ft | 22 kts | 326° |
| 2026-05-05 15:44 | 44.54081 | 11.27221 | 127 ft | 15 kts | 24° |
| 2026-05-05 15:45 | 44.54104 | 11.27309 | 128 ft | 0 kts | 117° |
| 2026-05-05 15:45 | 44.54100 | 11.27322 | 127 ft | 8 kts | 117° |
| 2026-05-05 15:45 | 44.53966 | 11.27695 | 125 ft | 79 kts | 117° |
| 2026-05-05 15:45 | 44.53617 | 11.28662 | 126 ft | 142 kts | 117° |
| 2026-05-05 15:46 | 44.53116 | 11.30063 | 398 ft | 166 kts | 117° |
| 2026-05-05 15:46 | 44.52628 | 11.31479 | 1122 ft | 165 kts | 98° |
| 2026-05-05 15:46 | 44.52901 | 11.33101 | 1412 ft | 187 kts | 47° |
| 2026-05-05 15:46 | 44.53618 | 11.33807 | 1741 ft | 196 kts | 22° |
| 2026-05-05 15:47 | 44.55360 | 11.34821 | 2523 ft | 207 kts | 24° |
| 2026-05-05 15:47 | 44.56238 | 11.35382 | 2889 ft | 213 kts | 25° |
| 2026-05-05 15:47 | 44.57596 | 11.36315 | 3423 ft | 220 kts | 26° |
| 2026-05-05 15:47 | 44.58984 | 11.37340 | 3923 ft | 227 kts | 27° |
| 2026-05-05 15:48 | 44.60367 | 11.38413 | 4564 ft | 228 kts | 28° |
| 2026-05-05 15:48 | 44.61749 | 11.39512 | 5162 ft | 230 kts | 28° |
| 2026-05-05 15:48 | 44.63606 | 11.41006 | 5946 ft | 234 kts | 27° |
| 2026-05-05 15:48 | 44.64561 | 11.41775 | 6347 ft | 236 kts | 26° |
| 2026-05-05 15:49 | 44.66162 | 11.42470 | 6572 ft | 250 kts | 354° |
| 2026-05-05 15:49 | 44.67789 | 11.41712 | 6876 ft | 251 kts | 319° |
| 2026-05-05 15:49 | 44.68883 | 11.39858 | 7378 ft | 247 kts | 289° |
| 2026-05-05 15:49 | 44.69146 | 11.37531 | 8003 ft | 242 kts | 259° |
| 2026-05-05 15:50 | 44.68510 | 11.35392 | 8831 ft | 238 kts | 232° |
| 2026-05-05 15:50 | 44.67374 | 11.33730 | 9592 ft | 241 kts | 223° |
| 2026-05-05 15:50 | 44.66088 | 11.32136 | 10269 ft | 245 kts | 223° |
| 2026-05-05 15:50 | 44.64805 | 11.30551 | 10976 ft | 246 kts | 223° |
| 2026-05-05 15:51 | 44.63519 | 11.28944 | 11688 ft | 249 kts | 224° |
| 2026-05-05 15:51 | 44.62226 | 11.27323 | 12413 ft | 250 kts | 223° |
| 2026-05-05 15:51 | 44.60848 | 11.25777 | 12809 ft | 266 kts | 220° |
| 2026-05-05 15:51 | 44.59309 | 11.24133 | 13000 ft | 289 kts | 219° |
| 2026-05-05 15:52 | 44.57653 | 11.22366 | 13177 ft | 310 kts | 219° |
| 2026-05-05 15:52 | 44.55883 | 11.20466 | 13344 ft | 330 kts | 220° |
| 2026-05-05 15:52 | 44.54206 | 11.18161 | 13466 ft | 348 kts | 237° |
| 2026-05-05 15:52 | 44.53170 | 11.15042 | 13656 ft | 364 kts | 255° |
| 2026-05-05 15:53 | 44.52848 | 11.11470 | 14078 ft | 372 kts | 264° |
| 2026-05-05 15:53 | 44.52707 | 11.07835 | 14617 ft | 376 kts | 265° |
| 2026-05-05 15:53 | 44.52576 | 11.04157 | 15204 ft | 378 kts | 265° |
| 2026-05-05 15:53 | 44.52436 | 11.00474 | 15749 ft | 381 kts | 264° |
| 2026-05-05 15:54 | 44.52282 | 10.96752 | 16276 ft | 384 kts | 264° |
| 2026-05-05 15:54 | 44.52116 | 10.92993 | 16802 ft | 387 kts | 264° |
| 2026-05-05 15:54 | 44.51944 | 10.89216 | 17322 ft | 391 kts | 264° |
| 2026-05-05 15:54 | 44.51767 | 10.85400 | 17836 ft | 393 kts | 264° |
| 2026-05-05 15:55 | 44.51591 | 10.81568 | 18322 ft | 397 kts | 264° |
| 2026-05-05 15:55 | 44.51413 | 10.77698 | 18776 ft | 399 kts | 264° |
| 2026-05-05 15:55 | 44.51242 | 10.73962 | 19290 ft | 400 kts | 264° |
| 2026-05-05 15:55 | 44.51062 | 10.70074 | 19809 ft | 401 kts | 264° |
| 2026-05-05 15:56 | 44.50881 | 10.66162 | 20299 ft | 402 kts | 264° |
| 2026-05-05 15:56 | 44.50739 | 10.63154 | 20654 ft | 404 kts | 264° |
| 2026-05-05 15:56 | 44.50553 | 10.59226 | 21091 ft | 406 kts | 264° |
| 2026-05-05 15:56 | 44.50364 | 10.55261 | 21496 ft | 409 kts | 264° |
| 2026-05-05 15:57 | 44.50173 | 10.51283 | 21929 ft | 410 kts | 264° |
| 2026-05-05 15:57 | 44.49995 | 10.47611 | 22326 ft | 411 kts | 264° |
| 2026-05-05 15:57 | 44.49800 | 10.43600 | 22725 ft | 413 kts | 264° |
| 2026-05-05 15:57 | 44.49604 | 10.39583 | 23119 ft | 415 kts | 264° |
| 2026-05-05 15:58 | 44.49405 | 10.35529 | 23499 ft | 418 kts | 264° |
| 2026-05-05 15:58 | 44.49226 | 10.31925 | 23820 ft | 418 kts | 264° |
| 2026-05-05 15:58 | 44.49059 | 10.28653 | 24096 ft | 419 kts | 264° |
| 2026-05-05 15:58 | 44.48843 | 10.24563 | 24424 ft | 421 kts | 264° |
| 2026-05-05 15:59 | 44.48623 | 10.20460 | 24706 ft | 423 kts | 264° |
| 2026-05-05 15:59 | 44.48402 | 10.16344 | 25046 ft | 424 kts | 263° |
| 2026-05-05 15:59 | 44.48189 | 10.12228 | 25371 ft | 425 kts | 264° |
| 2026-05-05 15:59 | 44.47997 | 10.08370 | 25658 ft | 426 kts | 264° |
| 2026-05-05 16:00 | 44.47867 | 10.05760 | 25829 ft | 427 kts | 264° |
| 2026-05-05 16:00 | 44.47678 | 10.01976 | 26083 ft | 428 kts | 263° |
| 2026-05-05 16:00 | 44.47470 | 9.97841 | 26346 ft | 430 kts | 263° |
| 2026-05-05 16:00 | 44.47390 | 9.96263 | 26447 ft | 430 kts | 263° |
| 2026-05-05 16:01 | 44.47211 | 9.92734 | 26719 ft | 430 kts | 263° |
| 2026-05-05 16:01 | 44.46997 | 9.88569 | 27193 ft | 426 kts | 263° |
| 2026-05-05 16:01 | 44.46783 | 9.84444 | 27622 ft | 425 kts | 263° |
| 2026-05-05 16:01 | 44.46558 | 9.80331 | 28058 ft | 423 kts | 263° |
| 2026-05-05 16:02 | 44.46326 | 9.76239 | 28545 ft | 420 kts | 263° |
| 2026-05-05 16:02 | 44.46093 | 9.72168 | 29004 ft | 418 kts | 263° |
| 2026-05-05 16:02 | 44.45863 | 9.68127 | 29391 ft | 417 kts | 262° |
| 2026-05-05 16:02 | 44.45631 | 9.64087 | 29769 ft | 416 kts | 262° |
| 2026-05-05 16:03 | 44.45401 | 9.60056 | 30133 ft | 415 kts | 262° |
| 2026-05-05 16:03 | 44.45177 | 9.56097 | 30529 ft | 412 kts | 263° |
| 2026-05-05 16:03 | 44.44956 | 9.52129 | 30991 ft | 407 kts | 262° |
| 2026-05-05 16:03 | 44.44735 | 9.48198 | 31432 ft | 403 kts | 262° |
| 2026-05-05 16:04 | 44.44515 | 9.44296 | 31861 ft | 401 kts | 262° |
| 2026-05-05 16:04 | 44.44295 | 9.40436 | 32364 ft | 396 kts | 262° |
| 2026-05-05 16:04 | 44.44076 | 9.36621 | 32859 ft | 391 kts | 261° |
| 2026-05-05 16:04 | 44.43858 | 9.32846 | 33220 ft | 389 kts | 261° |
| 2026-05-05 16:05 | 44.43638 | 9.29079 | 33498 ft | 388 kts | 261° |
| 2026-05-05 16:05 | 44.43418 | 9.25328 | 33868 ft | 386 kts | 261° |
| 2026-05-05 16:05 | 44.43199 | 9.21604 | 34191 ft | 384 kts | 261° |
| 2026-05-05 16:05 | 44.42978 | 9.17882 | 34360 ft | 385 kts | 261° |
| 2026-05-05 16:06 | 44.42756 | 9.14139 | 34499 ft | 386 kts | 261° |
| 2026-05-05 16:06 | 44.42531 | 9.10386 | 34632 ft | 389 kts | 261° |
| 2026-05-05 16:06 | 44.42253 | 9.06625 | 34886 ft | 387 kts | 258° |
| 2026-05-05 16:06 | 44.41854 | 9.02898 | 35063 ft | 389 kts | 258° |
| 2026-05-05 16:07 | 44.41424 | 8.99153 | 35158 ft | 391 kts | 257° |
| 2026-05-05 16:07 | 44.40982 | 8.95385 | 35298 ft | 393 kts | 257° |
| 2026-05-05 16:07 | 44.40542 | 8.91622 | 35470 ft | 393 kts | 258° |
| 2026-05-05 16:07 | 44.40102 | 8.87842 | 35627 ft | 394 kts | 258° |
| 2026-05-05 16:08 | 44.39670 | 8.84105 | 35761 ft | 395 kts | 258° |
| 2026-05-05 16:08 | 44.39231 | 8.80304 | 35907 ft | 395 kts | 258° |
| 2026-05-05 16:08 | 44.38793 | 8.76505 | 35956 ft | 397 kts | 258° |
| 2026-05-05 16:09 | 44.37913 | 8.68877 | 35977 ft | 397 kts | 258° |
| 2026-05-05 16:09 | 44.37029 | 8.61261 | 35961 ft | 396 kts | 258° |
| 2026-05-05 16:10 | 44.36149 | 8.53733 | 35959 ft | 395 kts | 257° |
| 2026-05-05 16:10 | 44.35260 | 8.46171 | 35953 ft | 394 kts | 257° |
| 2026-05-05 16:11 | 44.34367 | 8.38615 | 35946 ft | 394 kts | 257° |
| 2026-05-05 16:12 | 44.32567 | 8.23526 | 35954 ft | 394 kts | 257° |
| 2026-05-05 16:13 | 44.30287 | 8.04654 | 35959 ft | 395 kts | 257° |
| 2026-05-05 16:13 | 44.29365 | 7.97094 | 35963 ft | 395 kts | 257° |
| 2026-05-05 16:14 | 44.27335 | 7.82020 | 35936 ft | 393 kts | 246° |
| 2026-05-05 16:15 | 44.24697 | 7.75439 | 35945 ft | 390 kts | 233° |
| 2026-05-05 16:15 | 44.20815 | 7.70142 | 35939 ft | 393 kts | 223° |
| 2026-05-05 16:16 | 44.12852 | 7.59790 | 35962 ft | 393 kts | 230° |
| 2026-05-05 16:17 | 44.07495 | 7.51161 | 35961 ft | 393 kts | 230° |
| 2026-05-05 16:18 | 44.02125 | 7.42578 | 35955 ft | 392 kts | 230° |
| 2026-05-05 16:19 | 43.96744 | 7.34018 | 35935 ft | 392 kts | 230° |
| 2026-05-05 16:19 | 43.91369 | 7.25497 | 35950 ft | 391 kts | 230° |
| 2026-05-05 16:20 | 43.84205 | 7.14176 | 35938 ft | 390 kts | 230° |
| 2026-05-05 16:22 | 43.75281 | 7.00134 | 35953 ft | 388 kts | 230° |
| 2026-05-05 16:23 | 43.69843 | 6.87437 | 35935 ft | 389 kts | 246° |
| 2026-05-05 16:23 | 43.66831 | 6.77112 | 35935 ft | 390 kts | 246° |
| 2026-05-05 16:24 | 43.64786 | 6.70180 | 35928 ft | 390 kts | 245° |
| 2026-05-05 16:25 | 43.61707 | 6.59802 | 35922 ft | 389 kts | 245° |
| 2026-05-05 16:25 | 43.58619 | 6.49439 | 35912 ft | 389 kts | 245° |
| 2026-05-05 16:26 | 43.54489 | 6.35646 | 35920 ft | 389 kts | 245° |
| 2026-05-05 16:27 | 43.52418 | 6.28753 | 35916 ft | 389 kts | 245° |
| 2026-05-05 16:27 | 43.50342 | 6.21865 | 35913 ft | 389 kts | 245° |
| 2026-05-05 16:28 | 43.48263 | 6.14980 | 35915 ft | 389 kts | 245° |
| 2026-05-05 16:28 | 43.46177 | 6.08099 | 35919 ft | 389 kts | 245° |
| 2026-05-05 16:29 | 43.44092 | 6.01232 | 35920 ft | 389 kts | 245° |
| 2026-05-05 16:29 | 43.42004 | 5.94365 | 35914 ft | 390 kts | 245° |
| 2026-05-05 16:30 | 43.39922 | 5.87535 | 35909 ft | 390 kts | 245° |
| 2026-05-05 16:30 | 43.37809 | 5.80620 | 35912 ft | 390 kts | 245° |
| 2026-05-05 16:31 | 43.35718 | 5.73796 | 35916 ft | 390 kts | 245° |
| 2026-05-05 16:31 | 43.33606 | 5.66922 | 35924 ft | 391 kts | 245° |
| 2026-05-05 16:32 | 43.31485 | 5.60037 | 35917 ft | 392 kts | 244° |
| 2026-05-05 16:32 | 43.29357 | 5.53144 | 35908 ft | 392 kts | 244° |
| 2026-05-05 16:33 | 43.27226 | 5.46262 | 35915 ft | 392 kts | 244° |
| 2026-05-05 16:33 | 43.25095 | 5.39392 | 35923 ft | 392 kts | 244° |
| 2026-05-05 16:34 | 43.22957 | 5.32524 | 35961 ft | 391 kts | 244° |
| 2026-05-05 16:34 | 43.20805 | 5.25666 | 35934 ft | 392 kts | 244° |
| 2026-05-05 16:35 | 43.18644 | 5.18804 | 35923 ft | 392 kts | 244° |
| 2026-05-05 16:35 | 43.16481 | 5.11948 | 35919 ft | 392 kts | 244° |
| 2026-05-05 16:36 | 43.14316 | 5.05100 | 35908 ft | 392 kts | 244° |
| 2026-05-05 16:36 | 43.12515 | 4.99417 | 35906 ft | 392 kts | 244° |
| 2026-05-05 16:37 | 43.10343 | 4.92577 | 35916 ft | 392 kts | 244° |
| 2026-05-05 16:37 | 43.08169 | 4.85746 | 35905 ft | 391 kts | 244° |
| 2026-05-05 16:38 | 43.05701 | 4.79163 | 35909 ft | 388 kts | 234° |
| 2026-05-05 16:38 | 43.02224 | 4.73533 | 35896 ft | 388 kts | 223° |
| 2026-05-05 16:39 | 42.98169 | 4.68650 | 35897 ft | 388 kts | 223° |
| 2026-05-05 16:39 | 42.94100 | 4.63787 | 35897 ft | 389 kts | 223° |
| 2026-05-05 16:40 | 42.90044 | 4.58921 | 35891 ft | 388 kts | 223° |
| 2026-05-05 16:40 | 42.85990 | 4.54051 | 35905 ft | 389 kts | 223° |
| 2026-05-05 16:41 | 42.81956 | 4.49208 | 35894 ft | 389 kts | 223° |
| 2026-05-05 16:41 | 42.77893 | 4.44338 | 35896 ft | 389 kts | 223° |
| 2026-05-05 16:42 | 42.73825 | 4.39472 | 35896 ft | 389 kts | 223° |
| 2026-05-05 16:42 | 42.69754 | 4.34609 | 35896 ft | 390 kts | 223° |
| 2026-05-05 16:43 | 42.65676 | 4.29748 | 35894 ft | 390 kts | 223° |
| 2026-05-05 16:43 | 42.61602 | 4.24901 | 35888 ft | 390 kts | 223° |
| 2026-05-05 16:44 | 42.57522 | 4.20055 | 35890 ft | 390 kts | 223° |
| 2026-05-05 16:44 | 42.53430 | 4.15203 | 35872 ft | 391 kts | 223° |
| 2026-05-05 16:45 | 42.49343 | 4.10367 | 35880 ft | 390 kts | 223° |
| 2026-05-05 16:45 | 42.45253 | 4.05535 | 35884 ft | 390 kts | 223° |
| 2026-05-05 16:46 | 42.41166 | 4.00715 | 35884 ft | 389 kts | 223° |
| 2026-05-05 16:46 | 42.37084 | 3.95910 | 35887 ft | 389 kts | 223° |
| 2026-05-05 16:47 | 42.32994 | 3.91103 | 35855 ft | 389 kts | 223° |
| 2026-05-05 16:47 | 42.28919 | 3.86322 | 35879 ft | 388 kts | 223° |
| 2026-05-05 16:48 | 42.24876 | 3.81588 | 35881 ft | 387 kts | 223° |
| 2026-05-05 16:48 | 42.20786 | 3.76807 | 35894 ft | 390 kts | 223° |
| 2026-05-05 16:49 | 42.16677 | 3.72008 | 35886 ft | 391 kts | 222° |
| 2026-05-05 16:49 | 42.12557 | 3.67206 | 35866 ft | 392 kts | 223° |
| 2026-05-05 16:50 | 42.08868 | 3.61842 | 35888 ft | 391 kts | 234° |
| 2026-05-05 16:50 | 42.06193 | 3.55460 | 35890 ft | 393 kts | 244° |
| 2026-05-05 16:51 | 42.03997 | 3.48707 | 35878 ft | 394 kts | 244° |
| 2026-05-05 16:51 | 42.01788 | 3.41962 | 35872 ft | 394 kts | 244° |
| 2026-05-05 16:52 | 41.99558 | 3.35220 | 35876 ft | 394 kts | 244° |
| 2026-05-05 16:52 | 41.97325 | 3.28489 | 35876 ft | 394 kts | 244° |
| 2026-05-05 16:53 | 41.95085 | 3.21759 | 35881 ft | 394 kts | 244° |
| 2026-05-05 16:53 | 41.92674 | 3.15164 | 35866 ft | 392 kts | 241° |
| 2026-05-05 16:54 | 41.90158 | 3.08690 | 35867 ft | 390 kts | 240° |
| 2026-05-05 16:54 | 41.87662 | 3.02268 | 35909 ft | 392 kts | 241° |
| 2026-05-05 16:55 | 41.85148 | 2.95765 | 35875 ft | 393 kts | 241° |
| 2026-05-05 16:55 | 41.82633 | 2.89250 | 35872 ft | 393 kts | 241° |
| 2026-05-05 16:56 | 41.80115 | 2.82739 | 35873 ft | 393 kts | 241° |
| 2026-05-05 16:56 | 41.77593 | 2.76231 | 35883 ft | 394 kts | 241° |
| 2026-05-05 16:57 | 41.75061 | 2.69713 | 35879 ft | 394 kts | 241° |
| 2026-05-05 16:57 | 41.72532 | 2.63217 | 35885 ft | 393 kts | 241° |
| 2026-05-05 16:58 | 41.70010 | 2.56753 | 35887 ft | 391 kts | 241° |
| 2026-05-05 16:58 | 41.67493 | 2.50318 | 35884 ft | 390 kts | 241° |
| 2026-05-05 16:59 | 41.64978 | 2.43901 | 35903 ft | 390 kts | 241° |
| 2026-05-05 16:59 | 41.62456 | 2.37479 | 35914 ft | 390 kts | 241° |
| 2026-05-05 17:00 | 41.59937 | 2.31080 | 35926 ft | 389 kts | 241° |
| 2026-05-05 17:00 | 41.57406 | 2.24660 | 35943 ft | 390 kts | 241° |
| 2026-05-05 17:01 | 41.54873 | 2.18252 | 35945 ft | 391 kts | 241° |
| 2026-05-05 17:01 | 41.52954 | 2.11516 | 35946 ft | 394 kts | 254° |
| 2026-05-05 17:02 | 41.52263 | 2.04215 | 35934 ft | 401 kts | 267° |
| 2026-05-05 17:02 | 41.52597 | 1.96764 | 35939 ft | 403 kts | 269° |
| 2026-05-05 17:03 | 41.52980 | 1.89293 | 35954 ft | 403 kts | 268° |
| 2026-05-05 17:03 | 41.53332 | 1.81810 | 35916 ft | 404 kts | 268° |
| 2026-05-05 17:04 | 41.53665 | 1.74334 | 35904 ft | 404 kts | 268° |
| 2026-05-05 17:04 | 41.53991 | 1.66848 | 35896 ft | 404 kts | 268° |
| 2026-05-05 17:05 | 41.54314 | 1.59373 | 35907 ft | 403 kts | 268° |
| 2026-05-05 17:05 | 41.54885 | 1.51912 | 35917 ft | 409 kts | 277° |
| 2026-05-05 17:06 | 41.56780 | 1.44654 | 35906 ft | 422 kts | 290° |
| 2026-05-05 17:06 | 41.59506 | 1.37747 | 35910 ft | 424 kts | 291° |
| 2026-05-05 17:07 | 41.62255 | 1.30780 | 35900 ft | 424 kts | 290° |
| 2026-05-05 17:07 | 41.64981 | 1.23775 | 35909 ft | 425 kts | 290° |
| 2026-05-05 17:08 | 41.67698 | 1.16748 | 35916 ft | 426 kts | 290° |
| 2026-05-05 17:08 | 41.70419 | 1.09698 | 35924 ft | 427 kts | 291° |
| 2026-05-05 17:09 | 41.73146 | 1.02629 | 35916 ft | 428 kts | 291° |
| 2026-05-05 17:09 | 41.75878 | 0.95528 | 35912 ft | 429 kts | 291° |
| 2026-05-05 17:10 | 41.78613 | 0.88400 | 35900 ft | 431 kts | 291° |
| 2026-05-05 17:10 | 41.81350 | 0.81254 | 35890 ft | 431 kts | 291° |
| 2026-05-05 17:11 | 41.84082 | 0.74105 | 35903 ft | 430 kts | 292° |
| 2026-05-05 17:11 | 41.86808 | 0.66962 | 35893 ft | 430 kts | 292° |
| 2026-05-05 17:12 | 41.89536 | 0.59807 | 35890 ft | 431 kts | 292° |
| 2026-05-05 17:12 | 41.92257 | 0.52653 | 35886 ft | 430 kts | 292° |
| 2026-05-05 17:13 | 41.94961 | 0.45485 | 35898 ft | 430 kts | 291° |
| 2026-05-05 17:13 | 41.97590 | 0.38439 | 35894 ft | 430 kts | 291° |
| 2026-05-05 17:14 | 42.00263 | 0.31297 | 35898 ft | 431 kts | 292° |
| 2026-05-05 17:14 | 42.02977 | 0.24062 | 35899 ft | 431 kts | 292° |
| 2026-05-05 17:15 | 42.05676 | 0.16844 | 35898 ft | 431 kts | 292° |
| 2026-05-05 17:15 | 42.08368 | 0.09633 | 35909 ft | 431 kts | 292° |
| 2026-05-05 17:16 | 42.11042 | 0.02464 | 35900 ft | 432 kts | 292° |
| 2026-05-05 17:16 | 42.12843 | -0.02373 | 35919 ft | 432 kts | 292° |
| 2026-05-05 17:17 | 42.14901 | -0.07914 | 35913 ft | 433 kts | 292° |
| 2026-05-05 17:17 | 42.17510 | -0.14954 | 35904 ft | 433 kts | 292° |
| 2026-05-05 17:18 | 42.20200 | -0.22227 | 35924 ft | 433 kts | 292° |
| 2026-05-05 17:18 | 42.22890 | -0.29518 | 35907 ft | 434 kts | 292° |
| 2026-05-05 17:19 | 42.25580 | -0.36823 | 35908 ft | 435 kts | 292° |
| 2026-05-05 17:19 | 42.28272 | -0.44152 | 35911 ft | 436 kts | 292° |
| 2026-05-05 17:20 | 42.30957 | -0.51479 | 35915 ft | 436 kts | 292° |
| 2026-05-05 17:20 | 42.33643 | -0.58835 | 35908 ft | 436 kts | 292° |
| 2026-05-05 17:21 | 42.36310 | -0.66203 | 35904 ft | 436 kts | 292° |
| 2026-05-05 17:22 | 42.40295 | -0.77254 | 35918 ft | 435 kts | 292° |
| 2026-05-05 17:22 | 42.42941 | -0.84607 | 35921 ft | 434 kts | 292° |
| 2026-05-05 17:23 | 42.45589 | -0.91952 | 35928 ft | 434 kts | 292° |
| 2026-05-05 17:23 | 42.48243 | -0.99317 | 35923 ft | 435 kts | 292° |
| 2026-05-05 17:24 | 42.50892 | -1.06691 | 35928 ft | 436 kts | 292° |
| 2026-05-05 17:24 | 42.53552 | -1.14095 | 35934 ft | 437 kts | 292° |
| 2026-05-05 17:25 | 42.56213 | -1.21519 | 35938 ft | 438 kts | 292° |
| 2026-05-05 17:25 | 42.58874 | -1.28965 | 35947 ft | 439 kts | 292° |
| 2026-05-05 17:26 | 42.61499 | -1.36322 | 35949 ft | 421 kts | 292° |
| 2026-05-05 17:26 | 42.62731 | -1.39798 | 35955 ft | 407 kts | 292° |
| 2026-05-05 17:26 | 42.63929 | -1.43213 | 35960 ft | 394 kts | 292° |
| 2026-05-05 17:26 | 42.65098 | -1.46558 | 35509 ft | 394 kts | 292° |
| 2026-05-05 17:27 | 42.66287 | -1.49971 | 34532 ft | 406 kts | 292° |
| 2026-05-05 17:27 | 42.67511 | -1.53482 | 33340 ft | 417 kts | 292° |
| 2026-05-05 17:27 | 42.68774 | -1.57081 | 32100 ft | 426 kts | 292° |
| 2026-05-05 17:27 | 42.70069 | -1.60748 | 30932 ft | 433 kts | 293° |
| 2026-05-05 17:28 | 42.70941 | -1.63213 | 30164 ft | 437 kts | 293° |
| 2026-05-05 17:28 | 42.72258 | -1.66951 | 28939 ft | 442 kts | 293° |
| 2026-05-05 17:28 | 42.73597 | -1.70682 | 28392 ft | 436 kts | 295° |
| 2026-05-05 17:28 | 42.75152 | -1.74227 | 27752 ft | 434 kts | 300° |
| 2026-05-05 17:29 | 42.76792 | -1.77643 | 27204 ft | 429 kts | 301° |
| 2026-05-05 17:29 | 42.78428 | -1.81012 | 26651 ft | 424 kts | 301° |
| 2026-05-05 17:29 | 42.80029 | -1.84348 | 26122 ft | 419 kts | 300° |
| 2026-05-05 17:29 | 42.81598 | -1.87670 | 25586 ft | 415 kts | 300° |
| 2026-05-05 17:30 | 42.83137 | -1.90962 | 25070 ft | 410 kts | 300° |
| 2026-05-05 17:30 | 42.84661 | -1.94232 | 24573 ft | 406 kts | 300° |
| 2026-05-05 17:30 | 42.86177 | -1.97474 | 23987 ft | 405 kts | 300° |
| 2026-05-05 17:30 | 42.87678 | -2.00669 | 23462 ft | 397 kts | 300° |
| 2026-05-05 17:31 | 42.89164 | -2.03832 | 22881 ft | 394 kts | 300° |
| 2026-05-05 17:31 | 42.90633 | -2.06963 | 22369 ft | 390 kts | 300° |
| 2026-05-05 17:31 | 42.92085 | -2.10064 | 21873 ft | 386 kts | 300° |
| 2026-05-05 17:31 | 42.93520 | -2.13132 | 21383 ft | 381 kts | 300° |
| 2026-05-05 17:32 | 42.94938 | -2.16169 | 20881 ft | 378 kts | 301° |
| 2026-05-05 17:32 | 42.96346 | -2.19185 | 20409 ft | 374 kts | 301° |
| 2026-05-05 17:32 | 42.97734 | -2.22163 | 19941 ft | 371 kts | 301° |
| 2026-05-05 17:32 | 42.99118 | -2.25132 | 19450 ft | 368 kts | 301° |
| 2026-05-05 17:33 | 43.00495 | -2.28069 | 18984 ft | 366 kts | 301° |
| 2026-05-05 17:33 | 43.01862 | -2.30981 | 18516 ft | 363 kts | 301° |
| 2026-05-05 17:33 | 43.03202 | -2.33838 | 18034 ft | 360 kts | 301° |
| 2026-05-05 17:33 | 43.04549 | -2.36711 | 17527 ft | 357 kts | 301° |
| 2026-05-05 17:34 | 43.05881 | -2.39557 | 17063 ft | 354 kts | 301° |
| 2026-05-05 17:34 | 43.07199 | -2.42378 | 16603 ft | 351 kts | 301° |
| 2026-05-05 17:34 | 43.08509 | -2.45186 | 16134 ft | 348 kts | 301° |
| 2026-05-05 17:34 | 43.09806 | -2.47968 | 15701 ft | 345 kts | 301° |
| 2026-05-05 17:35 | 43.11092 | -2.50728 | 15238 ft | 343 kts | 301° |
| 2026-05-05 17:35 | 43.12369 | -2.53472 | 14792 ft | 341 kts | 301° |
| 2026-05-05 17:35 | 43.13637 | -2.56200 | 14347 ft | 339 kts | 301° |
| 2026-05-05 17:35 | 43.14899 | -2.58917 | 13909 ft | 337 kts | 301° |
| 2026-05-05 17:36 | 43.16153 | -2.61618 | 13434 ft | 335 kts | 301° |
| 2026-05-05 17:36 | 43.17401 | -2.64310 | 12957 ft | 334 kts | 301° |
| 2026-05-05 17:36 | 43.18639 | -2.66984 | 12512 ft | 331 kts | 301° |
| 2026-05-05 17:36 | 43.19869 | -2.69642 | 12109 ft | 329 kts | 302° |
| 2026-05-05 17:37 | 43.21092 | -2.72286 | 11648 ft | 327 kts | 302° |
| 2026-05-05 17:37 | 43.22304 | -2.74911 | 11212 ft | 326 kts | 302° |
| 2026-05-05 17:37 | 43.23510 | -2.77524 | 10833 ft | 322 kts | 302° |
| 2026-05-05 17:37 | 43.24689 | -2.80079 | 10724 ft | 311 kts | 302° |
| 2026-05-05 17:38 | 43.25824 | -2.82544 | 10583 ft | 303 kts | 302° |
| 2026-05-05 17:38 | 43.26942 | -2.84970 | 10461 ft | 298 kts | 302° |
| 2026-05-05 17:38 | 43.28025 | -2.87326 | 10339 ft | 294 kts | 302° |
| 2026-05-05 17:38 | 43.29106 | -2.89677 | 10213 ft | 287 kts | 302° |
| 2026-05-05 17:39 | 43.30144 | -2.91971 | 10092 ft | 279 kts | 298° |
| 2026-05-05 17:39 | 43.30787 | -2.94449 | 9825 ft | 277 kts | 282° |
| 2026-05-05 17:39 | 43.31165 | -2.97041 | 9479 ft | 277 kts | 282° |
| 2026-05-05 17:39 | 43.31532 | -2.99628 | 9181 ft | 275 kts | 282° |
| 2026-05-05 17:40 | 43.31900 | -3.02194 | 8886 ft | 274 kts | 282° |
| 2026-05-05 17:40 | 43.32272 | -3.04751 | 8597 ft | 272 kts | 282° |
| 2026-05-05 17:40 | 43.32643 | -3.07267 | 8330 ft | 268 kts | 283° |
| 2026-05-05 17:40 | 43.33016 | -3.09782 | 8047 ft | 267 kts | 283° |
| 2026-05-05 17:41 | 43.33386 | -3.12273 | 7773 ft | 266 kts | 283° |
| 2026-05-05 17:41 | 43.33632 | -3.13917 | 7579 ft | 266 kts | 283° |
| 2026-05-05 17:41 | 43.34025 | -3.16548 | 7280 ft | 264 kts | 283° |
| 2026-05-05 17:41 | 43.34379 | -3.18931 | 7007 ft | 263 kts | 283° |
| 2026-05-05 17:42 | 43.34745 | -3.21390 | 6737 ft | 262 kts | 283° |
| 2026-05-05 17:42 | 43.35101 | -3.23775 | 6475 ft | 260 kts | 283° |
| 2026-05-05 17:42 | 43.35461 | -3.26207 | 6164 ft | 258 kts | 283° |
| 2026-05-05 17:42 | 43.35807 | -3.28558 | 5946 ft | 252 kts | 283° |
| 2026-05-05 17:43 | 43.36155 | -3.30938 | 5762 ft | 248 kts | 281° |
| 2026-05-05 17:43 | 43.36138 | -3.33280 | 5620 ft | 245 kts | 262° |
| 2026-05-05 17:43 | 43.35827 | -3.35515 | 5509 ft | 236 kts | 262° |
| 2026-05-05 17:43 | 43.35535 | -3.37657 | 5432 ft | 226 kts | 262° |
| 2026-05-05 17:44 | 43.35260 | -3.39751 | 5331 ft | 219 kts | 263° |
| 2026-05-05 17:44 | 43.34999 | -3.41778 | 5236 ft | 212 kts | 263° |
| 2026-05-05 17:44 | 43.34744 | -3.43771 | 5139 ft | 213 kts | 263° |
| 2026-05-05 17:44 | 43.34489 | -3.45789 | 4976 ft | 215 kts | 264° |
| 2026-05-05 17:45 | 43.34231 | -3.47826 | 4718 ft | 215 kts | 262° |
| 2026-05-05 17:45 | 43.34052 | -3.49796 | 4697 ft | 203 kts | 278° |
| 2026-05-05 17:45 | 43.34592 | -3.51561 | 4495 ft | 202 kts | 303° |
| 2026-05-05 17:45 | 43.35167 | -3.53309 | 4214 ft | 200 kts | 286° |
| 2026-05-05 17:46 | 43.35561 | -3.55105 | 3929 ft | 192 kts | 290° |
| 2026-05-05 17:46 | 43.36014 | -3.56792 | 3690 ft | 185 kts | 291° |
| 2026-05-05 17:46 | 43.36454 | -3.58430 | 3429 ft | 181 kts | 290° |
| 2026-05-05 17:46 | 43.36877 | -3.60023 | 3187 ft | 174 kts | 290° |
| 2026-05-05 17:47 | 43.37284 | -3.61559 | 2937 ft | 168 kts | 290° |
| 2026-05-05 17:47 | 43.37671 | -3.63026 | 2741 ft | 161 kts | 289° |
| 2026-05-05 17:47 | 43.38048 | -3.64449 | 2531 ft | 156 kts | 289° |
| 2026-05-05 17:47 | 43.38413 | -3.65829 | 2309 ft | 150 kts | 290° |
| 2026-05-05 17:48 | 43.38772 | -3.67184 | 2114 ft | 151 kts | 290° |
| 2026-05-05 17:48 | 43.39131 | -3.68539 | 1920 ft | 152 kts | 289° |
| 2026-05-05 17:48 | 43.39489 | -3.69893 | 1715 ft | 150 kts | 290° |
| 2026-05-05 17:48 | 43.39837 | -3.71206 | 1523 ft | 141 kts | 290° |
| 2026-05-05 17:49 | 43.40174 | -3.72474 | 1307 ft | 141 kts | 289° |
| 2026-05-05 17:49 | 43.40508 | -3.73734 | 1112 ft | 142 kts | 289° |
| 2026-05-05 17:49 | 43.40848 | -3.75038 | 908 ft | 148 kts | 291° |
| 2026-05-05 17:49 | 43.41201 | -3.76331 | 750 ft | 146 kts | 292° |
| 2026-05-05 17:50 | 43.41549 | -3.77644 | 566 ft | 146 kts | 290° |
| 2026-05-05 17:50 | 43.41900 | -3.78963 | 352 ft | 146 kts | 292° |
| 2026-05-05 17:50 | 43.42243 | -3.80265 | 120 ft | 144 kts | 290° |
| 2026-05-05 17:50 | 43.42579 | -3.81522 | 23 ft | 129 kts | 290° |
| 2026-05-05 17:51 | 43.42838 | -3.82491 | 19 ft | 88 kts | 290° |
| 2026-05-05 17:51 | 43.42939 | -3.82871 | 19 ft | 19 kts | 289° |
| 2026-05-05 17:51 | 43.42896 | -3.83027 | 18 ft | 18 kts | 217° |
| 2026-05-05 17:51 | 43.42818 | -3.83023 | 20 ft | 11 kts | 136° |
| 2026-05-05 17:52 | 43.42785 | -3.82930 | 19 ft | 11 kts | 110° |
| 2026-05-05 17:52 | 43.42768 | -3.82867 | 19 ft | 11 kts | 110° |
| 2026-05-05 17:52 | 43.42743 | -3.82772 | 18 ft | 10 kts | 109° |
| 2026-05-05 17:53 | 43.42719 | -3.82684 | 18 ft | 10 kts | 110° |
| 2026-05-05 17:53 | 43.42690 | -3.82574 | 20 ft | 15 kts | 109° |
| 2026-05-05 17:53 | 43.42649 | -3.82421 | 18 ft | 19 kts | 110° |
| 2026-05-05 17:53 | 43.42608 | -3.82306 | 18 ft | 10 kts | 153° |
| 2026-05-05 17:54 | 43.42524 | -3.82328 | 19 ft | 14 kts | 202° |
| 2026-05-05 17:54 | 43.42456 | -3.82384 | 18 ft | 8 kts | 264° |
| 2026-05-05 17:54 | 43.42474 | -3.82457 | 18 ft | 7 kts | 291° |
| 2026-05-05 17:54 | 43.42448 | -3.82490 | 18 ft | 4 kts | 192° |
| 2026-05-05 17:55 | 43.42438 | -3.82495 | 18 ft | 1 kts | 201° |
| 2026-05-05 17:55 | 43.42434 | -3.82497 | 18 ft | 0 kts | 201° |